createdAt,value
2023-05-04T00:00:05.216Z,122.500000
2023-05-04T00:01:00.726Z,132.500000
2023-05-04T00:02:00.848Z,132.500000
2023-05-04T00:03:00.834Z,132.500000
2023-05-04T00:04:01.121Z,145.000000
2023-05-04T00:05:03.172Z,145.000000
2023-05-04T00:06:00.836Z,135.000000
2023-05-04T00:07:00.758Z,135.000000
2023-05-04T00:08:00.854Z,125.000000
2023-05-04T00:09:00.795Z,125.000000
2023-05-04T00:10:03.851Z,125.000000
2023-05-04T00:11:00.783Z,125.000000
2023-05-04T00:12:08.310Z,125.000000
2023-05-04T00:13:00.835Z,125.000000
2023-05-04T00:14:00.899Z,117.500000
2023-05-04T00:15:03.245Z,117.500000
2023-05-04T00:16:00.957Z,117.500000
2023-05-04T00:17:00.811Z,125.000000
2023-05-04T00:18:01.025Z,125.000000
2023-05-04T00:19:00.826Z,125.000000
2023-05-04T00:20:03.941Z,125.000000
2023-05-04T00:21:00.871Z,122.500000
2023-05-04T00:22:00.935Z,122.500000
2023-05-04T00:23:00.861Z,122.500000
2023-05-04T00:24:00.935Z,132.500000
2023-05-04T00:25:03.334Z,132.500000
2023-05-04T00:26:01.009Z,125.000000
2023-05-04T00:27:00.910Z,125.000000
2023-05-04T00:28:00.947Z,125.000000
2023-05-04T00:29:00.882Z,117.500000
2023-05-04T00:30:04.248Z,117.500000
2023-05-04T00:31:00.908Z,122.500000
2023-05-04T00:32:01.021Z,122.500000
2023-05-04T00:33:00.973Z,122.500000
2023-05-04T00:34:01.019Z,132.500000
2023-05-04T00:35:03.411Z,132.500000
2023-05-04T00:36:01.002Z,132.500000
2023-05-04T00:37:00.932Z,147.500000
2023-05-04T00:38:01.034Z,147.500000
2023-05-04T00:39:00.968Z,132.500000
2023-05-04T00:40:04.019Z,132.500000
2023-05-04T00:41:00.949Z,132.500000
2023-05-04T00:43:05.633Z,120.000000
2023-05-04T00:44:01.043Z,120.000000
2023-05-04T00:45:04.937Z,120.000000
2023-05-04T00:46:01.060Z,122.500000
2023-05-04T00:47:01.099Z,122.500000
2023-05-04T00:48:01.113Z,122.500000
2023-05-04T00:49:01.057Z,120.000000
2023-05-04T00:50:04.314Z,120.000000
2023-05-04T00:51:01.044Z,125.000000
2023-05-04T00:52:01.086Z,125.000000
2023-05-04T00:53:01.029Z,125.000000
2023-05-04T00:54:01.113Z,135.000000
2023-05-04T00:55:03.678Z,135.000000
2023-05-04T00:56:01.109Z,135.000000
2023-05-04T00:57:01.059Z,127.500000
2023-05-04T00:58:01.116Z,127.500000
2023-05-04T00:59:01.049Z,117.500000
2023-05-04T01:00:04.716Z,117.500000
2023-05-04T01:01:01.114Z,117.500000
2023-05-04T01:02:01.154Z,122.500000
2023-05-04T01:03:01.157Z,122.500000
2023-05-04T01:04:01.198Z,122.500000
2023-05-04T01:05:03.583Z,122.500000
2023-05-04T01:06:01.219Z,110.000000
2023-05-04T01:07:01.111Z,110.000000
2023-05-04T01:08:01.191Z,110.000000
2023-05-04T01:09:01.149Z,95.000000
2023-05-04T01:10:04.618Z,95.000000
2023-05-04T01:11:01.144Z,105.000000
2023-05-04T01:12:01.243Z,105.000000
2023-05-04T01:13:01.151Z,105.000000
2023-05-04T01:14:01.223Z,105.000000
2023-05-04T01:15:03.579Z,105.000000
2023-05-04T01:16:01.229Z,100.000000
2023-05-04T01:17:01.180Z,100.000000
2023-05-04T01:18:01.279Z,100.000000
2023-05-04T01:19:01.173Z,120.000000
2023-05-04T01:20:04.368Z,120.000000
2023-05-04T01:21:01.207Z,115.000000
2023-05-04T01:22:01.274Z,115.000000
2023-05-04T01:23:00.188Z,115.000000
2023-05-04T01:24:00.923Z,100.000000
2023-05-04T01:25:02.798Z,100.000000
2023-05-04T01:26:00.286Z,92.500000
2023-05-04T01:27:00.250Z,92.500000
2023-05-04T01:28:00.328Z,92.500000
2023-05-04T01:29:00.230Z,87.500000
2023-05-04T01:30:03.444Z,87.500000
2023-05-04T01:31:00.286Z,87.500000
2023-05-04T01:32:00.317Z,132.500000
2023-05-04T01:33:00.304Z,132.500000
2023-05-04T01:34:00.888Z,132.500000
2023-05-04T01:35:02.762Z,145.000000
2023-05-04T01:36:00.375Z,145.000000
2023-05-04T01:37:00.268Z,100.000000
2023-05-04T01:38:00.382Z,100.000000
2023-05-04T01:39:00.291Z,82.500000
2023-05-04T01:40:04.112Z,82.500000
2023-05-04T01:41:00.348Z,82.500000
2023-05-04T01:42:00.429Z,95.000000
2023-05-04T01:43:00.339Z,95.000000
2023-05-04T01:44:00.420Z,95.000000
2023-05-04T01:45:02.832Z,115.000000
2023-05-04T01:46:00.451Z,115.000000
2023-05-04T01:47:00.430Z,117.500000
2023-05-04T01:48:00.890Z,117.500000
2023-05-04T01:49:00.367Z,87.500000
2023-05-04T01:50:03.565Z,87.500000
2023-05-04T01:51:00.409Z,87.500000
2023-05-04T01:52:00.884Z,87.500000
2023-05-04T01:53:00.394Z,87.500000
2023-05-04T01:54:00.537Z,87.500000
2023-05-04T01:55:02.764Z,127.500000
2023-05-04T01:56:00.889Z,127.500000
2023-05-04T01:57:00.425Z,125.000000
2023-05-04T01:58:00.487Z,125.000000
2023-05-04T01:59:00.430Z,125.000000
2023-05-04T02:00:04.060Z,145.000000
2023-05-04T02:01:00.474Z,145.000000
2023-05-04T02:02:00.626Z,147.500000
2023-05-04T02:03:00.622Z,147.500000
2023-05-04T02:04:01.097Z,147.500000
2023-05-04T02:05:02.921Z,132.500000
2023-05-04T02:06:00.590Z,132.500000
2023-05-04T02:07:00.535Z,120.000000
2023-05-04T02:08:00.594Z,120.000000
2023-05-04T02:09:00.526Z,120.000000
2023-05-04T02:10:03.672Z,135.000000
2023-05-04T02:11:00.529Z,135.000000
2023-05-04T02:12:00.617Z,127.500000
2023-05-04T02:13:00.592Z,127.500000
2023-05-04T02:14:00.624Z,127.500000
2023-05-04T02:15:03.234Z,122.500000
2023-05-04T02:16:00.978Z,122.500000
2023-05-04T02:17:00.582Z,122.500000
2023-05-04T02:18:00.693Z,117.500000
2023-05-04T02:19:00.592Z,117.500000
2023-05-04T02:20:05.474Z,115.000000
2023-05-04T02:21:00.623Z,115.000000
2023-05-04T02:22:00.734Z,115.000000
2023-05-04T02:23:00.605Z,127.500000
2023-05-04T02:24:00.926Z,127.500000
2023-05-04T02:25:03.614Z,120.000000
2023-05-04T02:26:00.723Z,120.000000
2023-05-04T02:27:00.641Z,120.000000
2023-05-04T02:28:00.723Z,117.500000
2023-05-04T02:29:00.639Z,117.500000
2023-05-04T02:30:04.055Z,122.500000
2023-05-04T02:31:00.649Z,122.500000
2023-05-04T02:32:00.825Z,125.000000
2023-05-04T02:33:00.732Z,125.000000
2023-05-04T02:34:00.757Z,125.000000
2023-05-04T02:35:04.290Z,122.500000
2023-05-04T02:36:00.778Z,122.500000
2023-05-04T02:37:00.686Z,122.500000
2023-05-04T02:38:00.950Z,125.000000
2023-05-04T02:39:00.706Z,125.000000
2023-05-04T02:40:03.788Z,132.500000
2023-05-04T02:41:00.697Z,132.500000
2023-05-04T02:42:00.911Z,132.500000
2023-05-04T02:43:00.703Z,132.500000
2023-05-04T02:44:00.775Z,132.500000
2023-05-04T02:45:03.355Z,120.000000
2023-05-04T02:46:00.986Z,120.000000
2023-05-04T02:47:00.757Z,120.000000
2023-05-04T02:48:00.896Z,125.000000
2023-05-04T02:49:00.745Z,125.000000
2023-05-04T02:50:03.993Z,122.500000
2023-05-04T02:51:00.771Z,122.500000
2023-05-04T02:52:00.864Z,122.500000
2023-05-04T02:53:00.774Z,127.500000
2023-05-04T02:54:00.885Z,127.500000
2023-05-04T02:55:03.341Z,120.000000
2023-05-04T02:56:00.878Z,120.000000
2023-05-04T02:57:00.811Z,120.000000
2023-05-04T02:58:01.083Z,120.000000
2023-05-04T02:59:00.839Z,120.000000
2023-05-04T03:00:05.126Z,122.500000
2023-05-04T03:01:00.893Z,122.500000
2023-05-04T03:02:00.960Z,127.500000
2023-05-04T03:03:00.911Z,127.500000
2023-05-04T03:04:01.017Z,127.500000
2023-05-04T03:05:03.368Z,127.500000
2023-05-04T03:06:00.986Z,127.500000
2023-05-04T03:07:00.918Z,127.500000
2023-05-04T03:08:00.980Z,122.500000
2023-05-04T03:09:00.940Z,122.500000
2023-05-04T03:10:04.168Z,130.000000
2023-05-04T03:11:00.961Z,130.000000
2023-05-04T03:12:01.026Z,130.000000
2023-05-04T03:13:01.017Z,130.000000
2023-05-04T03:14:01.049Z,130.000000
2023-05-04T03:15:03.538Z,127.500000
2023-05-04T03:16:01.076Z,127.500000
2023-05-04T03:17:01.025Z,127.500000
2023-05-04T03:18:01.129Z,125.000000
2023-05-04T03:19:00.986Z,125.000000
2023-05-04T03:20:04.105Z,125.000000
2023-05-04T03:21:01.000Z,130.000000
2023-05-04T03:22:01.103Z,130.000000
2023-05-04T03:23:01.005Z,130.000000
2023-05-04T03:24:01.084Z,130.000000
2023-05-04T03:25:05.163Z,130.000000
2023-05-04T03:26:01.076Z,127.500000
2023-05-04T03:27:01.038Z,127.500000
2023-05-04T03:28:01.127Z,125.000000
2023-05-04T03:29:01.043Z,125.000000
2023-05-04T03:30:07.072Z,125.000000
2023-05-04T03:31:01.060Z,125.000000
2023-05-04T03:32:01.184Z,125.000000
2023-05-04T03:33:01.123Z,120.000000
2023-05-04T03:34:01.144Z,120.000000
2023-05-04T03:35:04.121Z,120.000000
2023-05-04T03:36:01.142Z,125.000000
2023-05-04T03:37:01.123Z,125.000000
2023-05-04T03:38:01.159Z,125.000000
2023-05-04T03:39:01.119Z,125.000000
2023-05-04T03:40:04.487Z,125.000000
2023-05-04T03:41:01.082Z,122.500000
2023-05-04T03:42:01.174Z,122.500000
2023-05-04T03:43:01.092Z,122.500000
2023-05-04T03:44:01.195Z,125.000000
2023-05-04T03:45:04.457Z,125.000000
2023-05-04T03:46:01.320Z,130.000000
2023-05-04T03:47:01.113Z,130.000000
2023-05-04T03:48:01.362Z,120.000000
2023-05-04T03:49:01.126Z,120.000000
2023-05-04T03:50:04.448Z,120.000000
2023-05-04T03:51:01.145Z,125.000000
2023-05-04T03:52:01.239Z,125.000000
2023-05-04T03:53:01.147Z,130.000000
2023-05-04T03:54:01.240Z,130.000000
2023-05-04T03:55:03.505Z,130.000000
2023-05-04T03:56:01.481Z,127.500000
2023-05-04T03:57:00.202Z,127.500000
2023-05-04T03:58:00.267Z,127.500000
2023-05-04T03:59:00.197Z,127.500000
2023-05-04T04:00:05.087Z,127.500000
2023-05-04T04:01:00.190Z,132.500000
2023-05-04T04:02:01.582Z,132.500000
2023-05-04T04:03:00.363Z,132.500000
2023-05-04T04:04:00.491Z,122.500000
2023-05-04T04:05:02.820Z,122.500000
2023-05-04T04:06:00.309Z,125.000000
2023-05-04T04:07:00.224Z,125.000000
2023-05-04T04:08:01.077Z,125.000000
2023-05-04T04:09:00.263Z,120.000000
2023-05-04T04:10:03.415Z,120.000000
2023-05-04T04:11:00.264Z,120.000000
2023-05-04T04:12:00.912Z,120.000000
2023-05-04T04:13:00.312Z,137.500000
2023-05-04T04:14:00.349Z,137.500000
2023-05-04T04:15:02.753Z,137.500000
2023-05-04T04:16:00.992Z,117.500000
2023-05-04T04:17:00.302Z,117.500000
2023-05-04T04:18:00.531Z,117.500000
2023-05-04T04:19:00.313Z,105.000000
2023-05-04T04:20:03.452Z,105.000000
2023-05-04T04:21:00.344Z,80.000000
2023-05-04T04:22:00.428Z,80.000000
2023-05-04T04:23:00.339Z,100.000000
2023-05-04T04:24:01.469Z,100.000000
2023-05-04T04:25:03.896Z,100.000000
2023-05-04T04:26:00.438Z,100.000000
2023-05-04T04:27:00.387Z,100.000000
2023-05-04T04:28:00.707Z,100.000000
2023-05-04T04:29:00.379Z,162.500000
2023-05-04T04:30:03.410Z,162.500000
2023-05-04T04:31:00.433Z,117.500000
2023-05-04T04:32:00.517Z,117.500000
2023-05-04T04:33:00.451Z,120.000000
2023-05-04T04:34:00.943Z,120.000000
2023-05-04T04:35:03.080Z,120.000000
2023-05-04T04:36:00.521Z,107.500000
2023-05-04T04:37:00.406Z,107.500000
2023-05-04T04:38:03.424Z,107.500000
2023-05-04T04:39:00.414Z,107.500000
2023-05-04T04:40:03.307Z,107.500000
2023-05-04T04:41:00.431Z,107.500000
2023-05-04T04:42:00.601Z,115.000000
2023-05-04T04:43:00.430Z,115.000000
2023-05-04T04:44:00.645Z,145.000000
2023-05-04T04:45:03.171Z,145.000000
2023-05-04T04:46:00.542Z,145.000000
2023-05-04T04:47:00.495Z,145.000000
2023-05-04T04:48:00.693Z,145.000000
2023-05-04T04:49:00.475Z,130.000000
2023-05-04T04:50:04.188Z,130.000000
2023-05-04T04:51:00.504Z,130.000000
2023-05-04T04:52:00.764Z,115.000000
2023-05-04T04:53:00.486Z,115.000000
2023-05-04T04:54:00.575Z,115.000000
2023-05-04T04:55:03.083Z,115.000000
2023-05-04T04:56:00.582Z,115.000000
2023-05-04T04:57:00.525Z,105.000000
2023-05-04T04:58:00.634Z,105.000000
2023-05-04T04:59:00.524Z,105.000000
2023-05-04T05:00:03.922Z,107.500000
2023-05-04T05:01:00.684Z,107.500000
2023-05-04T05:02:00.727Z,117.500000
2023-05-04T05:03:00.639Z,117.500000
2023-05-04T05:04:00.854Z,117.500000
2023-05-04T05:05:03.197Z,110.000000
2023-05-04T05:06:00.739Z,110.000000
2023-05-04T05:07:00.631Z,105.000000
2023-05-04T05:08:00.726Z,105.000000
2023-05-04T05:09:00.664Z,112.500000
2023-05-04T05:10:03.940Z,112.500000
2023-05-04T05:11:00.657Z,112.500000
2023-05-04T05:12:00.748Z,105.000000
2023-05-04T05:13:00.686Z,105.000000
2023-05-04T05:14:02.158Z,105.000000
2023-05-04T05:15:03.082Z,102.500000
2023-05-04T05:16:00.779Z,102.500000
2023-05-04T05:17:00.822Z,110.000000
2023-05-04T05:18:00.847Z,110.000000
2023-05-04T05:19:00.699Z,102.500000
2023-05-04T05:20:04.989Z,102.500000
2023-05-04T05:21:00.765Z,102.500000
2023-05-04T05:22:00.820Z,100.000000
2023-05-04T05:23:00.730Z,100.000000
2023-05-04T05:24:00.815Z,100.000000
2023-05-04T05:25:03.474Z,105.000000
2023-05-04T05:26:03.177Z,105.000000
2023-05-04T05:27:00.763Z,105.000000
2023-05-04T05:28:01.004Z,110.000000
2023-05-04T05:29:00.856Z,110.000000
2023-05-04T05:30:06.797Z,110.000000
2023-05-04T05:31:00.897Z,110.000000
2023-05-04T05:32:00.840Z,107.500000
2023-05-04T05:33:00.857Z,107.500000
2023-05-04T05:34:00.861Z,107.500000
2023-05-04T05:35:03.172Z,140.000000
2023-05-04T05:36:00.886Z,140.000000
2023-05-04T05:37:00.847Z,105.000000
2023-05-04T05:38:00.896Z,105.000000
2023-05-04T05:39:00.838Z,105.000000
2023-05-04T05:40:03.962Z,97.500000
2023-05-04T05:41:00.825Z,97.500000
2023-05-04T05:42:00.927Z,10.000000
2023-05-04T05:43:00.822Z,10.000000
2023-05-04T05:44:00.906Z,10.000000
2023-05-04T05:45:03.293Z,52.500000
2023-05-04T05:46:00.954Z,52.500000
2023-05-04T05:47:00.843Z,52.500000
2023-05-04T05:48:00.964Z,25.000000
2023-05-04T05:49:00.864Z,25.000000
2023-05-04T05:50:04.158Z,110.000000
2023-05-04T05:51:00.879Z,110.000000
2023-05-04T05:52:00.976Z,107.500000
2023-05-04T05:53:00.923Z,107.500000
2023-05-04T05:54:00.988Z,117.500000
2023-05-04T05:55:03.227Z,117.500000
2023-05-04T05:56:11.616Z,117.500000
2023-05-04T05:57:00.901Z,112.500000
2023-05-04T05:58:00.962Z,112.500000
2023-05-04T05:59:00.911Z,112.500000
2023-05-04T06:00:04.675Z,112.500000
2023-05-04T06:01:00.941Z,112.500000
2023-05-04T06:02:01.018Z,117.500000
2023-05-04T06:03:01.030Z,117.500000
2023-05-04T06:04:01.231Z,115.000000
2023-05-04T06:05:03.605Z,115.000000
2023-05-04T06:06:01.037Z,115.000000
2023-05-04T06:07:00.971Z,115.000000
2023-05-04T06:08:08.249Z,115.000000
2023-05-04T06:09:00.991Z,115.000000
2023-05-04T06:10:04.432Z,117.500000
2023-05-04T06:11:00.991Z,117.500000
2023-05-04T06:12:01.102Z,120.000000
2023-05-04T06:13:01.097Z,120.000000
2023-05-04T06:14:01.098Z,120.000000
2023-05-04T06:15:06.344Z,117.500000
2023-05-04T06:16:01.221Z,117.500000
2023-05-04T06:17:01.081Z,117.500000
2023-05-04T06:18:01.231Z,120.000000
2023-05-04T06:19:01.093Z,120.000000
2023-05-04T06:20:05.882Z,122.500000
2023-05-04T06:21:01.173Z,122.500000
2023-05-04T06:22:01.211Z,122.500000
2023-05-04T06:23:01.128Z,132.500000
2023-05-04T06:24:01.220Z,132.500000
2023-05-04T06:25:07.158Z,117.500000
2023-05-04T06:26:01.215Z,117.500000
2023-05-04T06:27:01.205Z,125.000000
2023-05-04T06:28:01.217Z,125.000000
2023-05-04T06:29:01.199Z,125.000000
2023-05-04T06:30:05.355Z,122.500000
2023-05-04T06:31:01.183Z,122.500000
2023-05-04T06:32:01.286Z,122.500000
2023-05-04T06:33:01.215Z,120.000000
2023-05-04T06:34:01.246Z,120.000000
2023-05-04T06:35:02.932Z,120.000000
2023-05-04T06:36:00.297Z,120.000000
2023-05-04T06:37:00.211Z,120.000000
2023-05-04T06:38:00.270Z,115.000000
2023-05-04T06:39:00.226Z,115.000000
2023-05-04T06:40:03.406Z,115.000000
2023-05-04T06:41:00.224Z,125.000000
2023-05-04T06:42:00.353Z,125.000000
2023-05-04T06:43:00.234Z,120.000000
2023-05-04T06:44:00.301Z,120.000000
2023-05-04T06:45:02.778Z,120.000000
2023-05-04T06:46:00.400Z,115.000000
2023-05-04T06:47:00.250Z,115.000000
2023-05-04T06:48:00.395Z,122.500000
2023-05-04T06:49:00.250Z,122.500000
2023-05-04T06:50:03.128Z,130.000000
2023-05-04T06:51:02.303Z,130.000000
2023-05-04T06:52:00.348Z,130.000000
2023-05-04T06:53:00.284Z,120.000000
2023-05-04T06:54:00.366Z,120.000000
2023-05-04T06:55:02.879Z,120.000000
2023-05-04T06:56:00.385Z,120.000000
2023-05-04T06:57:00.329Z,120.000000
2023-05-04T06:58:00.418Z,117.500000
2023-05-04T06:59:00.318Z,117.500000
2023-05-04T07:00:03.812Z,117.500000
2023-05-04T07:01:00.384Z,117.500000
2023-05-04T07:02:00.397Z,117.500000
2023-05-04T07:03:00.439Z,122.500000
2023-05-04T07:04:00.631Z,122.500000
2023-05-04T07:05:02.871Z,122.500000
2023-05-04T07:06:09.192Z,130.000000
2023-05-04T07:07:00.354Z,130.000000
2023-05-04T07:08:00.420Z,130.000000
2023-05-04T07:09:00.409Z,125.000000
2023-05-04T07:10:04.429Z,125.000000
2023-05-04T07:11:00.390Z,125.000000
2023-05-04T07:12:00.511Z,125.000000
2023-05-04T07:13:00.404Z,125.000000
2023-05-04T07:14:00.657Z,125.000000
2023-05-04T07:15:02.793Z,125.000000
2023-05-04T07:16:00.545Z,130.000000
2023-05-04T07:17:00.396Z,130.000000
2023-05-04T07:18:00.558Z,115.000000
2023-05-04T07:19:00.423Z,115.000000
2023-05-04T07:20:05.317Z,115.000000
2023-05-04T07:21:11.233Z,120.000000
2023-05-04T07:22:00.518Z,120.000000
2023-05-04T07:23:00.434Z,127.500000
2023-05-04T07:24:00.538Z,127.500000
2023-05-04T07:25:02.891Z,127.500000
2023-05-04T07:26:00.556Z,117.500000
2023-05-04T07:27:00.470Z,117.500000
2023-05-04T07:28:00.536Z,125.000000
2023-05-04T07:29:00.466Z,125.000000
2023-05-04T07:30:04.338Z,125.000000
2023-05-04T07:31:00.499Z,120.000000
2023-05-04T07:32:00.673Z,120.000000
2023-05-04T07:33:00.539Z,120.000000
2023-05-04T07:34:03.667Z,120.000000
2023-05-04T07:35:02.885Z,120.000000
2023-05-04T07:36:00.591Z,120.000000
2023-05-04T07:37:00.523Z,120.000000
2023-05-04T07:38:00.634Z,120.000000
2023-05-04T07:39:00.590Z,115.000000
2023-05-04T07:40:03.698Z,115.000000
2023-05-04T07:41:00.539Z,115.000000
2023-05-04T07:42:00.627Z,115.000000
2023-05-04T07:43:00.589Z,115.000000
2023-05-04T07:44:00.648Z,110.000000
2023-05-04T07:45:03.039Z,110.000000
2023-05-04T07:46:00.888Z,122.500000
2023-05-04T07:47:00.577Z,122.500000
2023-05-04T07:48:00.735Z,122.500000
2023-05-04T07:49:00.603Z,132.500000
2023-05-04T07:50:03.764Z,132.500000
2023-05-04T07:51:00.668Z,132.500000
2023-05-04T07:52:00.700Z,135.000000
2023-05-04T07:53:00.636Z,135.000000
2023-05-04T07:54:00.721Z,117.500000
2023-05-04T07:55:03.239Z,117.500000
2023-05-04T07:56:00.734Z,122.500000
2023-05-04T07:57:00.665Z,122.500000
2023-05-04T07:58:00.732Z,122.500000
2023-05-04T07:59:00.686Z,122.500000
2023-05-04T08:00:04.220Z,122.500000
2023-05-04T08:01:00.701Z,122.500000
2023-05-04T08:02:00.837Z,122.500000
2023-05-04T08:03:00.795Z,122.500000
2023-05-04T08:04:00.790Z,122.500000
2023-05-04T08:05:04.315Z,112.500000
2023-05-04T08:06:00.847Z,112.500000
2023-05-04T08:07:00.751Z,120.000000
2023-05-04T08:08:00.844Z,120.000000
2023-05-04T08:09:00.755Z,135.000000
2023-05-04T08:10:03.785Z,135.000000
2023-05-04T08:11:15.853Z,135.000000
2023-05-04T08:12:01.932Z,135.000000
2023-05-04T08:13:00.786Z,135.000000
2023-05-04T08:14:04.039Z,125.000000
2023-05-04T08:15:03.925Z,125.000000
2023-05-04T08:16:00.872Z,125.000000
2023-05-04T08:17:00.799Z,130.000000
2023-05-04T08:18:00.963Z,130.000000
2023-05-04T08:19:00.818Z,125.000000
2023-05-04T08:20:19.706Z,125.000000
2023-05-04T08:21:00.814Z,125.000000
2023-05-04T08:22:00.895Z,125.000000
2023-05-04T08:23:00.822Z,125.000000
2023-05-04T08:24:00.945Z,125.000000
2023-05-04T08:25:03.826Z,135.000000
2023-05-04T08:28:47.130Z,125.000000
2023-05-04T08:29:00.868Z,125.000000
2023-05-04T08:30:04.990Z,115.000000
2023-05-04T08:31:00.880Z,115.000000
2023-05-04T08:32:02.024Z,117.500000
2023-05-04T08:33:00.999Z,117.500000
2023-05-04T08:34:02.058Z,150.000000
2023-05-04T08:35:03.358Z,150.000000
2023-05-04T08:36:08.238Z,150.000000
2023-05-04T08:37:00.954Z,175.000000
2023-05-04T08:38:01.023Z,175.000000
2023-05-04T08:39:00.970Z,142.500000
2023-05-04T08:40:07.787Z,142.500000
2023-05-04T08:41:00.953Z,142.500000
2023-05-04T08:42:01.297Z,132.500000
2023-05-04T08:43:00.979Z,132.500000
2023-05-04T08:44:02.868Z,132.500000
2023-05-04T08:45:04.077Z,127.500000
2023-05-04T08:46:01.174Z,127.500000
2023-05-04T08:47:01.013Z,132.500000
2023-05-04T08:48:01.161Z,132.500000
2023-05-04T08:49:00.996Z,132.500000
2023-05-04T08:50:11.781Z,137.500000
2023-05-04T08:51:01.069Z,137.500000
2023-05-04T08:52:02.203Z,152.500000
2023-05-04T08:53:01.045Z,152.500000
2023-05-04T08:54:08.401Z,135.000000
2023-05-04T08:55:04.072Z,135.000000
2023-05-04T08:56:04.396Z,135.000000
2023-05-04T08:57:01.093Z,120.000000
2023-05-04T08:58:01.188Z,120.000000
2023-05-04T08:59:01.110Z,130.000000
2023-05-04T09:00:05.592Z,130.000000
2023-05-04T09:01:01.309Z,130.000000
2023-05-04T09:02:01.265Z,130.000000
2023-05-04T09:03:01.208Z,130.000000
2023-05-04T09:04:01.513Z,135.000000
2023-05-04T09:05:03.937Z,135.000000
2023-05-04T09:06:01.814Z,135.000000
2023-05-04T09:07:01.131Z,122.500000
2023-05-04T09:08:02.358Z,122.500000
2023-05-04T09:09:01.163Z,122.500000
2023-05-04T09:10:04.919Z,132.500000
2023-05-04T09:11:01.145Z,132.500000
2023-05-04T09:12:02.016Z,130.000000
2023-05-04T09:13:01.265Z,130.000000
2023-05-04T09:14:01.309Z,130.000000
2023-05-04T09:15:03.977Z,130.000000
2023-05-04T09:16:01.889Z,130.000000
2023-05-04T09:17:00.294Z,130.000000
2023-05-04T09:18:00.391Z,130.000000
2023-05-04T09:19:00.215Z,130.000000
2023-05-04T09:20:03.320Z,135.000000
2023-05-04T09:21:00.222Z,135.000000
2023-05-04T09:22:00.308Z,135.000000
2023-05-04T09:23:00.223Z,140.000000
2023-05-04T09:24:00.351Z,140.000000
2023-05-04T09:25:02.782Z,135.000000
2023-05-04T09:26:00.302Z,135.000000
2023-05-04T09:27:00.253Z,135.000000
2023-05-04T09:28:00.438Z,135.000000
2023-05-04T09:29:00.249Z,135.000000
2023-05-04T09:30:03.207Z,132.500000
2023-05-04T09:31:00.324Z,132.500000
2023-05-04T09:32:00.346Z,132.500000
2023-05-04T09:33:00.320Z,127.500000
2023-05-04T09:34:00.527Z,127.500000
2023-05-04T09:35:03.190Z,117.500000
2023-05-04T09:36:00.411Z,117.500000
2023-05-04T09:37:00.297Z,122.500000
2023-05-04T09:38:00.385Z,122.500000
2023-05-04T09:39:00.324Z,122.500000
2023-05-04T09:40:03.370Z,117.500000
2023-05-04T09:41:00.330Z,117.500000
2023-05-04T09:42:00.425Z,117.500000
2023-05-04T09:43:00.329Z,127.500000
2023-05-04T09:44:00.410Z,127.500000
2023-05-04T09:45:03.364Z,135.000000
2023-05-04T09:46:00.457Z,135.000000
2023-05-04T09:47:00.359Z,135.000000
2023-05-04T09:48:00.470Z,135.000000
2023-05-04T09:49:00.360Z,135.000000
2023-05-04T09:50:03.322Z,150.000000
2023-05-04T09:51:00.400Z,150.000000
2023-05-04T09:52:00.492Z,150.000000
2023-05-04T09:53:00.407Z,140.000000
2023-05-04T09:54:00.628Z,140.000000
2023-05-04T09:55:03.963Z,130.000000
2023-05-04T09:56:06.514Z,130.000000
2023-05-04T09:57:00.462Z,130.000000
2023-05-04T09:58:00.535Z,127.500000
2023-05-04T09:59:00.450Z,127.500000
2023-05-04T10:00:03.389Z,135.000000
2023-05-04T10:01:00.508Z,135.000000
2023-05-04T10:02:07.559Z,135.000000
2023-05-04T10:03:00.555Z,135.000000
2023-05-04T10:04:01.734Z,135.000000
2023-05-04T10:05:03.588Z,135.000000
2023-05-04T10:08:00.639Z,185.000000
2023-05-04T10:09:00.594Z,185.000000
2023-05-04T10:10:04.023Z,157.500000
2023-05-04T10:11:00.589Z,157.500000
2023-05-04T10:12:00.795Z,140.000000
2023-05-04T10:13:00.637Z,140.000000
2023-05-04T10:14:00.665Z,140.000000
2023-05-04T10:15:03.219Z,147.500000
2023-05-04T10:16:00.737Z,147.500000
2023-05-04T10:17:00.633Z,147.500000
2023-05-04T10:18:00.852Z,140.000000
2023-05-04T10:19:00.610Z,140.000000
2023-05-04T10:20:03.906Z,135.000000
2023-05-04T10:21:00.645Z,135.000000
2023-05-04T10:22:00.869Z,140.000000
2023-05-04T10:23:00.637Z,140.000000
2023-05-04T10:24:00.761Z,140.000000
2023-05-04T10:25:03.479Z,137.500000
2023-05-04T10:26:00.769Z,137.500000
2023-05-04T10:27:00.657Z,137.500000
2023-05-04T10:28:00.810Z,150.000000
2023-05-04T10:29:00.681Z,150.000000
2023-05-04T10:30:03.803Z,137.500000
2023-05-04T10:31:00.715Z,137.500000
2023-05-04T10:32:00.802Z,137.500000
2023-05-04T10:33:00.802Z,132.500000
2023-05-04T10:34:00.788Z,132.500000
2023-05-04T10:35:03.378Z,132.500000
2023-05-04T10:36:00.791Z,147.500000
2023-05-04T10:37:00.712Z,147.500000
2023-05-04T10:38:00.806Z,147.500000
2023-05-04T10:39:00.736Z,142.500000
2023-05-04T10:40:04.668Z,142.500000
2023-05-04T10:41:00.719Z,145.000000
2023-05-04T10:42:00.853Z,145.000000
2023-05-04T10:43:00.750Z,155.000000
2023-05-04T10:45:08.656Z,142.500000
2023-05-04T10:46:00.872Z,142.500000
2023-05-04T10:47:00.760Z,142.500000
2023-05-04T10:48:00.914Z,132.500000
2023-05-04T10:49:00.787Z,132.500000
2023-05-04T10:50:04.585Z,132.500000
2023-05-04T10:51:00.853Z,147.500000
2023-05-04T10:52:04.091Z,147.500000
2023-05-04T10:53:00.812Z,147.500000
2023-05-04T10:54:00.904Z,175.000000
2023-05-04T10:55:03.646Z,175.000000
2023-05-04T10:56:01.042Z,192.500000
2023-05-04T10:57:01.063Z,192.500000
2023-05-04T10:58:01.048Z,192.500000
2023-05-04T10:59:00.852Z,135.000000
2023-05-04T11:00:06.062Z,135.000000
2023-05-04T11:01:00.895Z,135.000000
2023-05-04T11:02:00.961Z,130.000000
2023-05-04T11:03:00.927Z,130.000000
2023-05-04T11:04:00.962Z,127.500000
2023-05-04T11:05:03.567Z,127.500000
2023-05-04T11:06:01.032Z,160.000000
2023-05-04T11:07:00.900Z,160.000000
2023-05-04T11:08:00.989Z,160.000000
2023-05-04T11:09:00.940Z,165.000000
2023-05-04T11:10:03.744Z,165.000000
2023-05-04T11:11:00.909Z,150.000000
2023-05-04T11:12:01.022Z,150.000000